Time;durP1;ratioP1;P1;durP2;ratioP2;P2;SDS_P1;SDS_P2;PMS_P1;PMS_P2;Temp;Humidity;BMP_temperature;BMP_pressure;BME280_temperature;BME280_humidity;BME280_pressure;Samples;Min_cycle;Max_cycle;Signal;HPM_P1;HPM_P2
2023/07/11 00:04:51;;;;;;;4.63;2.30;;;;;;;20.63;45.27;100711.31;20091099;29;20229;-78
2023/07/11 00:14:54;;;;;;;3.33;1.90;;;;;;;21.02;44.61;100697.47;20068881;29;20206;-77
2023/07/11 00:24:56;;;;;;;5.70;2.38;;;;;;;20.68;44.69;100686.03;20089176;29;20271;-77
2023/07/11 00:34:58;;;;;;;4.45;2.38;;;;;;;20.81;44.55;100680.03;20041577;29;20251;-77
2023/07/11 00:45:03;;;;;;;2.85;2.03;;;;;;;20.20;45.47;100669.84;20069366;29;20291;-77
2023/07/11 00:55:10;;;;;;;3.38;1.77;;;;;;;20.08;45.48;100652.94;20067043;29;20234;-77
2023/07/11 01:05:13;;;;;;;7.45;2.38;;;;;;;20.82;43.35;100641.66;20072673;29;20230;-77
2023/07/11 01:15:16;;;;;;;3.17;1.92;;;;;;;20.81;43.13;100637.16;20088581;29;20255;-76
2023/07/11 01:25:19;;;;;;;2.63;1.70;;;;;;;20.31;43.72;100633.66;20071691;29;20520;-77
2023/07/11 01:35:22;;;;;;;5.10;2.10;;;;;;;20.37;43.25;100632.13;20087630;29;20207;-77
2023/07/11 01:45:24;;;;;;;3.28;2.00;;;;;;;20.03;43.10;100626.34;20099750;29;20222;-77
2023/07/11 01:55:29;;;;;;;3.60;2.08;;;;;;;20.55;42.28;100618.84;20085179;29;20283;-77
2023/07/11 02:05:31;;;;;;;4.10;1.83;;;;;;;20.46;42.54;100615.47;20084955;29;20519;-77
2023/07/11 02:15:34;;;;;;;2.60;1.88;;;;;;;20.55;43.29;100600.88;20085668;29;20202;-77
2023/07/11 02:25:36;;;;;;;7.22;1.98;;;;;;;20.14;42.31;100600.78;20083156;29;20222;-76
2023/07/11 02:35:39;;;;;;;5.32;1.73;;;;;;;19.98;42.88;100598.13;20067964;29;20243;-77
2023/07/11 02:45:41;;;;;;;1.92;1.63;;;;;;;19.74;43.47;100587.16;20097013;29;20238;-77
2023/07/11 02:55:44;;;;;;;6.07;1.40;;;;;;;20.01;43.66;100585.09;20079979;29;20234;-76
2023/07/11 03:05:48;;;;;;;5.38;1.52;;;;;;;19.91;43.00;100572.28;20096179;29;20230;-78
2023/07/11 03:15:50;;;;;;;3.60;1.42;;;;;;;19.90;42.69;100556.34;20090524;29;20263;-78
2023/07/11 03:25:53;;;;;;;2.28;1.50;;;;;;;20.03;42.28;100546.34;20085792;29;20234;-77
2023/07/11 03:35:55;;;;;;;3.25;1.25;;;;;;;19.81;42.72;100532.97;20078438;29;20202;-77
2023/07/11 03:45:58;;;;;;;3.88;1.38;;;;;;;19.72;43.01;100535.31;20064476;29;20290;-78
2023/07/11 03:56:00;;;;;;;4.43;2.47;;;;;;;20.03;41.46;100529.22;20085811;29;20231;-78
2023/07/11 04:06:02;;;;;;;2.30;1.48;;;;;;;19.90;42.67;100519.22;20075468;29;20226;-78
2023/07/11 04:16:05;;;;;;;4.10;1.60;;;;;;;20.06;42.52;100499.06;20075579;29;20198;-77
2023/07/11 04:26:08;;;;;;;2.40;1.70;;;;;;;19.96;42.88;100500.56;20075863;29;20706;-77
2023/07/11 04:36:13;;;;;;;3.42;1.92;;;;;;;20.25;42.40;100489.47;20074640;29;20318;-77
2023/07/11 04:46:17;;;;;;;2.17;1.65;;;;;;;20.12;43.07;100496.69;20069577;29;20255;-77
2023/07/11 04:56:21;;;;;;;2.47;1.70;;;;;;;20.12;43.38;100483.22;20014680;29;20227;-77
2023/07/11 05:06:24;;;;;;;5.38;2.03;;;;;;;20.57;43.26;100467.78;20005129;29;20231;-78
2023/07/11 05:16:28;;;;;;;3.97;2.05;;;;;;;20.60;43.36;100461.28;19999049;29;20275;-78
2023/07/11 05:26:32;;;;;;;3.25;1.45;;;;;;;20.35;44.43;100454.47;19997889;29;20227;-78
2023/07/11 05:36:35;;;;;;;3.53;2.20;;;;;;;20.79;43.51;100439.34;19996421;29;20207;-77
2023/07/11 05:46:37;;;;;;;3.13;1.95;;;;;;;20.48;44.60;100438.69;20005625;29;20289;-78
2023/07/11 05:56:41;;;;;;;5.38;1.63;;;;;;;21.01;43.55;100424.00;20090679;29;20278;-78
2023/07/11 06:06:44;;;;;;;3.35;1.50;;;;;;;21.37;42.22;100414.44;20104659;29;20251;-78
2023/07/11 06:16:47;;;;;;;2.17;1.58;;;;;;;22.09;40.82;100409.81;20120707;29;20271;-78
2023/07/11 06:26:53;;;;;;;4.03;1.77;;;;;;;21.90;41.66;100402.41;20051420;29;20294;-78
2023/07/11 06:36:56;;;;;;;5.28;1.40;;;;;;;22.55;41.03;100392.72;20082744;29;20206;-78
2023/07/11 06:46:58;;;;;;;3.67;2.20;;;;;;;22.58;41.01;100386.16;20036401;29;20230;-78
2023/07/11 06:57:00;;;;;;;4.05;1.58;;;;;;;22.33;41.80;100379.56;20077218;29;20211;-78
2023/07/11 07:07:03;;;;;;;4.03;1.42;;;;;;;23.40;39.64;100363.84;20079001;29;20226;-78
2023/07/11 07:17:06;;;;;;;4.68;2.17;;;;;;;23.30;37.98;100358.97;20074608;29;20282;-78
2023/07/11 07:27:09;;;;;;;3.47;1.85;;;;;;;23.33;37.77;100363.06;20078421;29;20291;-78
2023/07/11 07:37:29;;;;;;;3.65;1.88;;;;;;;23.71;37.12;100358.41;20076280;29;20206;-77
2023/07/11 07:47:34;;;;;;;2.97;1.75;;;;;;;24.36;35.89;100330.88;20087898;29;20235;-78
2023/07/11 07:57:36;;;;;;;7.18;1.67;;;;;;;24.76;35.45;100333.00;20076365;29;20270;-78
2023/07/11 08:07:38;;;;;;;2.92;1.45;;;;;;;24.90;35.13;100329.16;20071084;29;20226;-78
2023/07/11 08:17:45;;;;;;;4.72;1.55;;;;;;;24.47;35.38;100323.78;20065621;29;20199;-78
2023/07/11 08:27:48;;;;;;;5.45;1.58;;;;;;;25.01;34.58;100303.13;20077422;29;20227;-77
2023/07/11 08:37:51;;;;;;;3.70;1.38;;;;;;;25.90;33.67;100289.19;20063276;29;20417;-77
2023/07/11 08:47:59;;;;;;;3.38;1.48;;;;;;;25.18;33.58;100290.56;20085541;29;20230;-78
2023/07/11 08:58:15;;;;;;;4.22;1.52;;;;;;;25.51;32.15;100283.16;20048488;29;20202;-78
2023/07/11 09:08:20;;;;;;;6.18;1.80;;;;;;;26.30;30.17;100281.53;20066324;29;20202;-77
2023/07/11 09:18:43;;;;;;;4.55;1.50;;;;;;;25.96;30.06;100266.44;20075740;29;20270;-78
2023/07/11 09:28:46;;;;;;;4.93;1.60;;;;;;;27.12;30.68;100265.56;20067072;29;20259;-78
2023/07/11 09:39:04;;;;;;;5.28;1.95;;;;;;;26.79;30.30;100250.13;20069736;29;20615;-78
2023/07/11 09:49:09;;;;;;;3.28;1.65;;;;;;;26.43;28.99;100241.31;20060306;29;20230;-78
2023/07/11 09:59:13;;;;;;;4.47;1.33;;;;;;;26.62;28.52;100242.63;20068152;29;20222;-78
2023/07/11 10:09:23;;;;;;;5.68;2.40;;;;;;;27.05;29.04;100231.03;20081832;29;20203;-78
2023/07/11 10:19:28;;;;;;;5.70;2.00;;;;;;;27.69;28.47;100226.72;20109711;29;20504;-78
2023/07/11 10:29:47;;;;;;;1.95;1.52;;;;;;;27.49;28.50;100208.63;20059734;29;20726;-79
2023/07/11 10:39:53;;;;;;;4.35;1.63;;;;;;;27.56;28.73;100209.25;20076838;29;20247;-79
2023/07/11 10:49:57;;;;;;;3.85;1.77;;;;;;;27.37;29.55;100195.69;20070282;29;20230;-79
2023/07/11 10:59:59;;;;;;;5.00;1.35;;;;;;;28.53;25.22;100172.91;20068389;29;20569;-78
2023/07/11 11:10:23;;;;;;;4.15;1.60;;;;;;;28.09;26.55;100169.53;20067639;29;20255;-79
2023/07/11 11:20:57;;;;;;;4.38;1.70;;;;;;;28.27;27.42;100155.44;20069385;29;20266;-79
2023/07/11 11:31:25;;;;;;;6.18;1.88;;;;;;;28.83;26.70;100129.03;20075397;29;20210;-79
2023/07/11 11:41:39;;;;;;;4.65;1.98;;;;;;;29.00;27.20;100133.44;20077563;29;20226;-79
2023/07/11 11:51:43;;;;;;;4.55;2.13;;;;;;;29.08;27.59;100114.56;20073948;29;20248;-79
2023/07/11 12:01:48;;;;;;;3.83;1.85;;;;;;;30.44;26.65;100094.13;20082038;29;20290;-79
2023/07/11 12:12:03;;;;;;;4.70;2.40;;;;;;;29.83;27.18;100075.22;20089554;29;20220;-79
2023/07/11 12:22:07;;;;;;;5.25;1.98;;;;;;;29.98;26.51;100066.00;20089748;29;20301;-79
2023/07/11 12:32:28;;;;;;;3.58;2.10;;;;;;;30.68;26.11;100053.00;20093879;29;20600;-79
2023/07/11 12:42:58;;;;;;;3.70;2.33;;;;;;;30.42;25.38;100043.63;20086164;29;20218;-79
2023/07/11 12:53:03;;;;;;;4.57;2.30;;;;;;;30.41;25.05;100039.09;20085224;29;20274;-79
2023/07/11 13:03:18;;;;;;;4.88;2.25;;;;;;;30.66;25.17;100023.63;20072777;29;20234;-79
2023/07/11 13:13:22;;;;;;;3.40;2.10;;;;;;;30.97;24.59;100001.19;20076913;29;20202;-79
2023/07/11 13:23:28;;;;;;;4.78;2.70;;;;;;;30.17;25.27;100001.84;20076330;29;20222;-79
2023/07/11 13:33:35;;;;;;;4.50;2.60;;;;;;;30.65;24.33;99995.88;20065488;29;21235;-79
2023/07/11 13:43:43;;;;;;;4.93;3.00;;;;;;;31.13;23.98;99966.06;20079015;29;20221;-79
2023/07/11 13:53:48;;;;;;;5.05;2.97;;;;;;;31.36;23.60;99953.03;20074023;29;20294;-79
2023/07/11 14:03:51;;;;;;;6.72;3.03;;;;;;;31.42;24.09;99944.47;20070017;29;20231;-79
2023/07/11 14:13:54;;;;;;;8.18;3.50;;;;;;;31.74;23.38;99920.59;20079732;29;20547;-79
2023/07/11 14:23:57;;;;;;;5.18;3.45;;;;;;;31.12;24.85;99926.66;20065763;29;20270;-79
2023/07/11 14:33:59;;;;;;;7.22;3.50;;;;;;;30.91;23.65;99921.75;20073172;29;20616;-79
2023/07/11 14:44:11;;;;;;;5.63;3.83;;;;;;;31.76;23.89;99906.34;20074156;29;20234;-79
2023/07/11 14:54:20;;;;;;;3.80;3.10;;;;;;;31.15;24.63;99904.56;20046122;29;20306;-79
2023/07/11 15:04:23;;;;;;;5.30;3.67;;;;;;;31.77;22.58;99884.69;20081085;29;20613;-79
2023/07/11 15:14:28;;;;;;;6.03;3.92;;;;;;;31.81;22.58;99888.25;20089580;29;20199;-79
2023/07/11 15:24:38;;;;;;;4.45;3.45;;;;;;;31.32;23.10;99873.06;20055711;29;20230;-78
2023/07/11 15:34:41;;;;;;;6.05;3.67;;;;;;;31.47;23.06;99866.09;20064688;29;20203;-77
2023/07/11 15:44:49;;;;;;;6.03;3.50;;;;;;;32.27;21.69;99827.81;20035736;29;20261;-77
2023/07/11 15:54:51;;;;;;;9.25;6.22;;;;;;;31.92;21.92;99821.63;20070018;29;20235;-78
2023/07/11 16:04:54;;;;;;;6.88;4.13;;;;;;;32.18;22.97;99804.56;20070057;29;20283;-77
2023/07/11 16:14:56;;;;;;;8.95;4.13;;;;;;;31.46;22.18;99793.88;20085527;29;20202;-78
2023/07/11 16:24:59;;;;;;;4.15;3.58;;;;;;;31.62;23.97;99790.66;20069652;29;20294;-77
2023/07/11 16:35:01;;;;;;;6.10;3.28;;;;;;;31.63;24.30;99785.66;20065799;29;20624;-78
2023/07/11 16:45:11;;;;;;;6.88;3.22;;;;;;;31.54;23.95;99777.75;20051535;29;20227;-77
2023/07/11 16:55:14;;;;;;;4.40;2.53;;;;;;;31.13;24.77;99770.50;20066651;29;20342;-78
2023/07/11 17:05:17;;;;;;;4.38;2.53;;;;;;;30.97;24.86;99756.28;20050179;29;20659;-77
2023/07/11 17:15:20;;;;;;;4.55;2.70;;;;;;;31.09;25.20;99747.41;20070855;29;20919;-77
2023/07/11 17:25:22;;;;;;;4.82;2.40;;;;;;;30.68;25.40;99736.41;20067389;29;20226;-78
2023/07/11 17:35:25;;;;;;;6.28;3.15;;;;;;;30.67;25.22;99732.69;20081214;29;20206;-77
2023/07/11 17:45:28;;;;;;;4.60;2.30;;;;;;;30.48;25.85;99720.22;20064442;29;20316;-78
2023/07/11 17:55:33;;;;;;;3.17;2.08;;;;;;;31.48;25.32;99698.25;20072297;29;20333;-78
2023/07/11 18:05:36;;;;;;;3.85;1.85;;;;;;;30.90;26.42;99687.69;20056371;29;20266;-78
2023/07/11 18:15:44;;;;;;;4.47;2.13;;;;;;;30.48;26.49;99690.38;20036643;29;20591;-78
2023/07/11 18:26:12;;;;;;;2.97;1.40;;;;;;;30.75;26.49;99675.09;20054839;29;20257;-79
2023/07/11 18:36:17;;;;;;;2.03;1.83;;;;;;;30.64;26.72;99651.56;20063330;29;20676;-80
2023/07/11 18:46:20;;;;;;;4.50;1.92;;;;;;;30.85;27.69;99645.56;20065698;29;20468;-80
2023/07/11 18:56:25;;;;;;;3.45;1.58;;;;;;;29.84;29.08;99633.00;19983219;29;20291;-80
2023/07/11 19:06:28;;;;;;;3.58;1.50;;;;;;;29.96;29.27;99618.84;19991545;29;20231;-79
2023/07/11 19:16:32;;;;;;;4.43;1.33;;;;;;;29.61;30.84;99604.56;19996859;29;20208;-79
2023/07/11 19:26:36;;;;;;;5.07;1.83;;;;;;;29.27;31.10;99613.44;20006539;29;20287;-80
2023/07/11 19:36:39;;;;;;;3.47;1.58;;;;;;;28.96;31.83;99617.13;19997452;29;20295;-79
2023/07/11 19:46:41;;;;;;;2.45;1.85;;;;;;;28.74;32.41;99656.81;20010396;29;20656;-79
2023/07/11 19:56:45;;;;;;;6.97;1.67;;;;;;;28.47;33.00;99675.56;20042674;29;20270;-80
2023/07/11 20:06:48;;;;;;;4.20;1.70;;;;;;;28.53;32.77;99663.41;20054509;29;20292;-78
2023/07/11 20:16:51;;;;;;;4.97;2.05;;;;;;;28.71;32.95;99635.41;20030551;29;20515;-79
2023/07/11 20:26:55;;;;;;;4.53;2.35;;;;;;;27.92;35.15;99615.56;20032788;29;20283;-78
2023/07/11 20:36:57;;;;;;;7.13;2.15;;;;;;;27.80;35.39;99617.16;20052057;29;20206;-77
2023/07/11 20:46:59;;;;;;;8.95;2.55;;;;;;;28.15;34.87;99615.13;20060302;29;20325;-77
2023/07/11 20:57:04;;;;;;;6.63;4.00;;;;;;;27.55;36.25;99599.81;20031637;29;20203;-77
2023/07/11 21:07:15;;;;;;;7.85;2.30;;;;;;;27.54;36.21;99586.66;20048001;29;20278;-77
2023/07/11 21:17:18;;;;;;;4.63;3.63;;;;;;;26.62;38.90;99596.13;20028941;29;20278;-77
2023/07/11 21:27:21;;;;;;;5.55;2.90;;;;;;;27.16;38.65;99607.66;20077396;29;20261;-76
2023/07/11 21:37:23;;;;;;;7.88;2.47;;;;;;;26.71;39.45;99613.56;20045320;29;20206;-76
2023/07/11 21:47:26;;;;;;;5.57;2.63;;;;;;;26.06;40.73;99621.56;20042567;29;20226;-77
2023/07/11 21:57:28;;;;;;;5.72;2.55;;;;;;;26.52;40.10;99574.13;20050953;29;20211;-77
2023/07/11 22:07:31;;;;;;;4.25;2.58;;;;;;;26.01;41.05;99562.38;20099250;29;20518;-76
2023/07/11 22:17:34;;;;;;;6.97;2.58;;;;;;;25.72;40.42;99553.69;20062879;29;20274;-77
2023/07/11 22:27:37;;;;;;;5.00;2.83;;;;;;;25.90;40.17;99561.88;20056241;29;20222;-77
2023/07/11 22:37:40;;;;;;;4.50;2.95;;;;;;;25.59;40.62;99582.38;20054297;29;20262;-76
2023/07/11 22:47:42;;;;;;;3.35;2.70;;;;;;;25.66;41.06;99590.88;20071122;29;20234;-77
2023/07/11 22:57:45;;;;;;;4.75;3.17;;;;;;;25.21;41.59;99610.91;20052123;29;20203;-77
2023/07/11 23:07:48;;;;;;;7.35;3.38;;;;;;;24.40;44.21;99656.59;20054324;29;20326;-78
2023/07/11 23:17:51;;;;;;;6.18;3.85;;;;;;;23.61;48.56;99658.38;20040815;29;20271;-76
2023/07/11 23:27:54;;;;;;;8.95;3.80;;;;;;;23.62;50.00;99639.91;20046902;29;20265;-77
2023/07/11 23:37:58;;;;;;;8.98;3.67;;;;;;;23.80;49.66;99703.59;20048676;29;20236;-76
2023/07/11 23:48:00;;;;;;;8.15;3.25;;;;;;;23.29;51.31;99748.63;20048822;29;20266;-77
2023/07/11 23:58:03;;;;;;;8.15;3.85;;;;;;;22.86;51.93;99743.38;20058977;29;20248;-78
